Terminal Aerodrome Forecast
Issued by NWS North Platte, NE

Home | Current Version | Previous Version | Text Only | Print | Product List | Glossary On
Versions: 1 2 3 4 5 6 7 8 9 10 11 12 13 14 15 16 17 18 19 20 21 22 23 24 25
922
FTUS43 KLBF 290520
TAFLBF
TAF
KLBF 290520Z 2906/3006 03005KT 4SM -RA OVC010
     FM291200 02011KT 1SM -RA BR OVC004
     FM291800 01018G22KT 4SM BR OVC004
     FM292100 02014G21KT P6SM VCSH OVC025=

USA.gov is the U.S. government's official web portal to all federal, state and local government web resources and services.